Thunder radar more information blitzortung!


avis per Snow/Ice more information rain snow radar


Visita la nostra xarxa de llocs de meteo:

Template documentation
and downloads

And another site



Snow/Ice From: 26-02-2018 12:00 Until: 27-02-2018 05:59 warning for: Snow/Ice Level: Yellow info button

Pagina Historial Weather Underground text

Diari Resum January 15, 2018 Unitats:  Mètric    Imperial   Tant
« Previous Dia
SegĂźent Dia »
Diari Setmana Mensual Anual Personalitzada
  Maxima: Minima: Media:
Temperatura: -17.8 °C -16.2 °C -13.7 °C
Punt de rosada: -17.8 °C -18.1 °C -17.1 °C
Humitat: Humidity % 60 % 65 %
Wind Speed: 0 km/h 0 km/h 8.4 km/h
RĂ fegues de vent: 0 km/h - -
Vent:- - WSW
Pression baro: 0 hPa 34395 hPa -
Precipitacions: 0 mm    
Historical Graphs
 
 
Dades de taula per January 15, 2018
Temps Temperatura Punt de rosada Pression baro Vent Wind Speed RĂ fegues de vent Humitat Rainfall Rate (Hourly)
-17.8 °C -17.8 °C 0 hPa Calm     Humidity % 0 mm
00:10 -12.9 °C -16.9 °C 34395 hPa WSW 9.3 km/h 9.3 km/h 61 % 0 mm
00:21 -12.9 °C -16.9 °C 34395 hPa WSW 9.3 km/h 9.3 km/h 61 % 0 mm
00:30 -12.9 °C -16.9 °C 34395 hPa WSW 9.3 km/h 9.3 km/h 61 % 0 mm
00:59 -12.9 °C -16.9 °C 34395 hPa WSW 9.3 km/h 9.3 km/h 61 % 0 mm
01:18 -12.9 °C -16.9 °C 34395 hPa WSW 9.3 km/h 9.3 km/h 61 % 0 mm
01:29 -12.9 °C -16.9 °C 34395 hPa WSW 9.3 km/h 9.3 km/h 61 % 0 mm
01:34 -12.9 °C -16.9 °C 34395 hPa WSW 9.3 km/h 9.3 km/h 61 % 0 mm
01:40 -12.9 °C -16.9 °C 34395 hPa WSW 9.3 km/h 9.3 km/h 61 % 0 mm
01:49 -12.9 °C -16.9 °C 34395 hPa WSW 9.3 km/h 9.3 km/h 61 % 0 mm
01:55 -12.9 °C -16.9 °C 34395 hPa WSW 9.3 km/h 9.3 km/h 61 % 0 mm
02:02 -12.9 °C -16.9 °C 34395 hPa WSW 9.3 km/h 9.3 km/h 61 % 0 mm
02:14 -12.9 °C -16.9 °C 34395 hPa WSW 9.3 km/h 9.3 km/h 61 % 0 mm
02:23 -12.9 °C -16.9 °C 34395 hPa WSW 9.3 km/h 9.3 km/h 61 % 0 mm
02:34 -12.9 °C -16.9 °C 34395 hPa WSW 9.3 km/h 9.3 km/h 61 % 0 mm
02:53 -12.9 °C -16.9 °C 34395 hPa WSW 9.3 km/h 9.3 km/h 61 % 0 mm
03:16 -12.9 °C -16.9 °C 34395 hPa WSW 9.3 km/h 9.3 km/h 61 % 0 mm
03:45 -12.9 °C -16.9 °C 34395 hPa WSW 9.3 km/h 9.3 km/h 61 % 0 mm
03:57 -12.9 °C -16.9 °C 34395 hPa WSW 9.3 km/h 9.3 km/h 61 % 0 mm
04:03 -12.9 °C -16.9 °C 34395 hPa WSW 9.3 km/h 9.3 km/h 61 % 0 mm
04:46 -12.9 °C -16.9 °C 34395 hPa WSW 9.3 km/h 9.3 km/h 61 % 0 mm
04:53 -12.9 °C -16.9 °C 34395 hPa WSW 9.3 km/h 9.3 km/h 61 % 0 mm
04:58 -12.9 °C -16.9 °C 34395 hPa WSW 9.3 km/h 9.3 km/h 61 % 0 mm
05:07 -12.9 °C -16.9 °C 34395 hPa WSW 9.3 km/h 9.3 km/h 61 % 0 mm
05:13 -12.9 °C -16.9 °C 34395 hPa WSW 9.3 km/h 9.3 km/h 61 % 0 mm
05:50 -12.9 °C -16.9 °C 34395 hPa WSW 9.3 km/h 9.3 km/h 61 % 0 mm
06:09 -12.9 °C -16.9 °C 34395 hPa WSW 9.3 km/h 9.3 km/h 61 % 0 mm
06:19 -12.9 °C -16.9 °C 34395 hPa WSW 9.3 km/h 9.3 km/h 61 % 0 mm
06:32 -12.9 °C -16.9 °C 34395 hPa WSW 9.3 km/h 9.3 km/h 61 % 0 mm
06:46 -12.9 °C -16.9 °C 34395 hPa WSW 9.3 km/h 9.3 km/h 61 % 0 mm
07:08 -12.9 °C -16.9 °C 34395 hPa WSW 9.3 km/h 9.3 km/h 61 % 0 mm
07:14 -12.9 °C -16.9 °C 34395 hPa WSW 9.3 km/h 9.3 km/h 61 % 0 mm
07:29 -12.9 °C -16.9 °C 34395 hPa WSW 9.3 km/h 9.3 km/h 61 % 0 mm
07:35 -12.9 °C -16.9 °C 34395 hPa WSW 9.3 km/h 9.3 km/h 61 % 0 mm
07:41 -12.9 °C -16.9 °C 34395 hPa WSW 9.3 km/h 9.3 km/h 61 % 0 mm
07:48 -12.9 °C -16.9 °C 34395 hPa WSW 9.3 km/h 9.3 km/h 61 % 0 mm
08:04 -16.1 °C -18 °C 34635.4 hPa West 9 km/h 9 km/h 78 % 0 mm
08:11 -16.1 °C -18 °C 34635.4 hPa WNW 3.7 km/h   78 % 0 mm
08:20 -16.1 °C -18 °C 34669.3 hPa NNE 6 km/h 6 km/h 78 % 0 mm
08:30 -16.2 °C -18.1 °C 34669.3 hPa WSW 6 km/h 6 km/h 78 % 0 mm
08:36 -16.1 °C -18 °C 34669.3 hPa Calm     78 % 0 mm
08:42 -15.9 °C -17.9 °C 34669.3 hPa WNW 6 km/h 6 km/h 78 % 0 mm
08:50 -15.8 °C -17.7 °C 34669.3 hPa WNW 5.1 km/h 10.3 km/h 78 % 0 mm
08:55 -15.6 °C -17.6 °C 34669.3 hPa WNW 2.6 km/h 7.7 km/h 78 % 0 mm
09:00 -15.4 °C -17.4 °C 34669.3 hPa Calm     78 % 0 mm
09:06 -15.3 °C -17.3 °C 34669.3 hPa WNW 3.1 km/h 3.1 km/h 78 % 0 mm
09:11 -15.3 °C -17.4 °C 34669.3 hPa West 6 km/h 6 km/h 77 % 0 mm
09:18 -15.2 °C -17.2 °C 34669.3 hPa NNW 3.1 km/h 3.1 km/h 77 % 0 mm
09:34 -14.6 °C -16.7 °C 34669.3 hPa Calm     76 % 0 mm
09:43 -14.3 °C -16.6 °C 34669.3 hPa NE 3.1 km/h 3.1 km/h 75 % 0 mm
09:52 -13.9 °C -16.2 °C 34669.3 hPa NNE 3.1 km/h   75 % 0 mm
10:04 -13.8 °C -16.3 °C 34669.3 hPa NNE 5.1 km/h   73 % 0 mm
10:11 -13.8 °C -16.5 °C 34669.3 hPa NNE 6.3 km/h 6.3 km/h 71 % 0 mm
10:18 -13.9 °C -16.7 °C 34703.1 hPa NNE 7.6 km/h 7.6 km/h 71 % 0 mm
10:37 -13.9 °C -16.7 °C 34703.1 hPa NNW 3.7 km/h 3.7 km/h 71 % 0 mm
10:43 -13.9 °C -16.7 °C 34703.1 hPa NNW 3.7 km/h 3.7 km/h 71 % 0 mm
10:54 -13.9 °C -16.7 °C 34703.1 hPa NNW 3.7 km/h 3.7 km/h 71 % 0 mm
11:06 -13.9 °C -16.7 °C 34703.1 hPa NNW 3.7 km/h 3.7 km/h 71 % 0 mm
11:14 -13.9 °C -16.7 °C 34703.1 hPa NNW 3.7 km/h 3.7 km/h 71 % 0 mm
11:35 -13.6 °C -16.8 °C 34740.4 hPa NNE 11.9 km/h 11.9 km/h 67 % 0 mm
12:04 -13.2 °C -16.4 °C 34740.4 hPa NE 11.1 km/h 11.1 km/h 67 % 0 mm
12:26 -12.9 °C -16.2 °C 34740.4 hPa North 11.9 km/h 11.9 km/h 66 % 0 mm
12:34 -12.7 °C -16 °C 34740.4 hPa WNW 6 km/h 6 km/h 66 % 0 mm
12:44 -12.7 °C -16.2 °C 34740.4 hPa East 8.5 km/h 8.5 km/h 65 % 0 mm
13:02 -12.7 °C -16.2 °C 34740.4 hPa WNW 6 km/h 6 km/h 65 % 0 mm
13:22 -12.6 °C -16.3 °C 34740.4 hPa NNE 11.9 km/h 11.9 km/h 63 % 0 mm
13:56 -13.1 °C -16.8 °C 34703.1 hPa NNE 15 km/h 15 km/h 63 % 0 mm
14:15 -13 °C -16.7 °C 34669.3 hPa NE 5.1 km/h 12.9 km/h 63 % 0 mm
14:27 -12.9 °C -16.6 °C 34669.3 hPa NW 6 km/h 6 km/h 63 % 0 mm
14:44 -12.3 °C -16.2 °C 34669.3 hPa SW 9 km/h 9 km/h 62 % 0 mm
14:51 -12.2 °C -16 °C 34703.1 hPa West 15 km/h 15 km/h 62 % 0 mm
14:57 -12.2 °C -16 °C 34703.1 hPa NW 15 km/h 15 km/h 62 % 0 mm
15:02 -12.3 °C -16.3 °C 34703.1 hPa WSW 20.9 km/h 20.9 km/h 61 % 0 mm
15:08 -12.3 °C -16.4 °C 34635.4 hPa WSW 26.9 km/h 26.9 km/h 60 % 0 mm
15:19 -12.6 °C -16.7 °C 34669.3 hPa NW 11.9 km/h 11.9 km/h 60 % 0 mm
15:26 -12.6 °C -16.7 °C 34669.3 hPa WSW 26.9 km/h 26.9 km/h 60 % 0 mm
15:43 -12.7 °C -16.8 °C 34669.3 hPa WSW 20.9 km/h 20.9 km/h 60 % 0 mm
15:49 -12.7 °C -16.8 °C 34669.3 hPa West 11.9 km/h 11.9 km/h 60 % 0 mm
15:56 -12.7 °C -16.8 °C 34669.3 hPa NW 11.9 km/h 11.9 km/h 60 % 0 mm
16:04 -12.8 °C -16.8 °C 34669.3 hPa WNW 15 km/h 15 km/h 60 % 0 mm
16:32 -13 °C -16.9 °C 34669.3 hPa SW 12.7 km/h 12.7 km/h 61 % 0 mm
16:44 -13.2 °C -17.1 °C 34669.3 hPa WSW 11.9 km/h 11.9 km/h 61 % 0 mm
17:00 -13.3 °C -17.2 °C 34669.3 hPa WSW 11.9 km/h 11.9 km/h 61 % 0 mm
17:24 -13.6 °C -17.4 °C 34635.4 hPa SW 15 km/h 15 km/h 62 % 0 mm
18:14 -13.9 °C -17.6 °C 34669.3 hPa NNW 3.1 km/h   63 % 0 mm
18:20 -14 °C -17.7 °C 34669.3 hPa WNW 3.7 km/h 3.7 km/h 63 % 0 mm
18:26 -14.1 °C -17.7 °C 34669.3 hPa Calm     63 % 0 mm
18:34 -14.1 °C -17.6 °C 34635.4 hPa SW 6 km/h 6 km/h 64 % 0 mm
18:45 -14.2 °C -17.7 °C 34635.4 hPa WSW 11.9 km/h 11.9 km/h 64 % 0 mm
18:53 -14.2 °C -17.7 °C 34635.4 hPa SW 6 km/h 6 km/h 64 % 0 mm
19:00 -14.3 °C -17.7 °C 34635.4 hPa WSW 6 km/h 6 km/h 65 % 0 mm
19:19 -14.4 °C -17.8 °C 34635.4 hPa SW 11.9 km/h 11.9 km/h 65 % 0 mm
19:32 -14.4 °C -17.7 °C 34635.4 hPa WSW 6 km/h 6 km/h 66 % 0 mm
19:50 -14.2 °C -17.5 °C 34635.4 hPa WSW 5.1 km/h 10.3 km/h 66 % 0 mm
19:55 -13.9 °C -17.4 °C 34601.5 hPa WSW 5.1 km/h 7.7 km/h 64 % 0 mm
20:05 -14 °C -17.6 °C 34601.5 hPa West 7.7 km/h 7.7 km/h 64 % 0 mm
20:06 -13.9 °C -17.2 °C 34635.4 hPa SW 11.9 km/h 11.9 km/h 66 % 0 mm
20:25 -14.1 °C -17.6 °C 34601.5 hPa WNW 2.6 km/h 5.1 km/h 64 % 0 mm
20:28 -13.9 °C -17.2 °C 34669.3 hPa WNW 11.9 km/h 11.9 km/h 66 % 0 mm
20:35 -14.1 °C -17.6 °C 34601.5 hPa WNW 5.1 km/h 5.1 km/h 64 % 0 mm
20:45 -14 °C -17.6 °C 34601.5 hPa West 2.6 km/h 10.3 km/h 64 % 0 mm
20:55 -13.9 °C -17.4 °C 34601.5 hPa West 2.6 km/h 7.7 km/h 64 % 0 mm
20:57 -13.8 °C -17.1 °C 34635.4 hPa West 9.3 km/h 9.3 km/h 66 % 0 mm
21:03 -13.8 °C -17.1 °C 34635.4 hPa WNW 9 km/h 9 km/h 66 % 0 mm
21:05 -13.9 °C -17.4 °C 34601.5 hPa WSW 5.1 km/h 7.7 km/h 64 % 0 mm
21:09 -13.8 °C -17.1 °C 34635.4 hPa West 6 km/h 6 km/h 66 % 0 mm
21:15 -13.9 °C -17.6 °C 34601.5 hPa WSW 2.6 km/h 7.7 km/h 63 % 0 mm
21:20 -13.8 °C -16.9 °C 34669.3 hPa WNW 6 km/h 6 km/h 67 % 0 mm
21:25 -13.9 °C -17.6 °C 34567.7 hPa WSW 5.1 km/h 5.1 km/h 63 % 0 mm
21:26 -13.8 °C -16.9 °C 34669.3 hPa WNW 6 km/h 6 km/h 67 % 0 mm
21:32 -13.8 °C -16.9 °C 34669.3 hPa West 9 km/h 9 km/h 67 % 0 mm
21:35 -13.9 °C -17.6 °C 34567.7 hPa WSW 5.1 km/h 10.3 km/h 63 % 0 mm
21:37 -13.8 °C -16.9 °C 34635.4 hPa NW 9 km/h 9 km/h 67 % 0 mm
21:45 -13.9 °C -17.6 °C 34567.7 hPa WSW 12.9 km/h 12.9 km/h 63 % 0 mm
21:46 -13.8 °C -16.9 °C 34635.4 hPa WSW 9 km/h 9 km/h 67 % 0 mm
21:47 -13.8 °C -16.9 °C 34635.4 hPa West 9 km/h 9 km/h 67 % 0 mm
21:48 -13.8 °C -16.9 °C 34635.4 hPa WNW 9.8 km/h 9.8 km/h 67 % 0 mm
21:49 -13.8 °C -16.9 °C 34669.3 hPa NW 15 km/h 15 km/h 67 % 0 mm
21:50 -13.8 °C -16.9 °C 34669.3 hPa WSW 9 km/h 9 km/h 67 % 0 mm
21:51 -13.8 °C -16.9 °C 34669.3 hPa WSW 11.9 km/h 11.9 km/h 67 % 0 mm
21:55 -13.9 °C -17.6 °C 34567.7 hPa WSW 7.7 km/h 12.9 km/h 63 % 0 mm
22:00 -13.7 °C -16.9 °C 34669.3 hPa WSW 6 km/h 6.8 km/h 67 % 0 mm
22:02 -13.8 °C -16.9 °C 34669.3 hPa SW 11.9 km/h 11.9 km/h 67 % 0 mm
22:05 -13.8 °C -17 °C 34635.4 hPa SW 6 km/h 6 km/h 67 % 0 mm
22:07 -13.9 °C -17.1 °C 34635.4 hPa WSW 6 km/h 6 km/h 67 % 0 mm
22:15 -13.8 °C -17.4 °C 34567.7 hPa WSW 7.7 km/h 10.3 km/h 63 % 0 mm
22:25 -13.8 °C -17.6 °C 34567.7 hPa WSW 7.7 km/h 15.6 km/h 62 % 0 mm
22:35 -13.7 °C -17.5 °C 34533.8 hPa SW 7.7 km/h 10.3 km/h 62 % 0 mm
22:36 -13.9 °C -17.1 °C 34669.3 hPa NW 7.6 km/h   67 % 0 mm
22:42 -13.9 °C -17.1 °C 34669.3 hPa WNW 6 km/h 6 km/h 67 % 0 mm
22:45 -13.8 °C -17.6 °C 34533.8 hPa WSW 7.7 km/h 10.3 km/h 62 % 0 mm
22:55 -13.8 °C -17.6 °C 34533.8 hPa WSW 7.7 km/h 15.6 km/h 62 % 0 mm
23:01 -13.8 °C -17 °C 34635.4 hPa WNW 11.9 km/h 11.9 km/h 67 % 0 mm
23:05 -13.8 °C -17.7 °C 34533.8 hPa SW 12.9 km/h 12.9 km/h 61 % 0 mm
23:15 -13.8 °C -17.7 °C 34533.8 hPa WSW 7.7 km/h 15.6 km/h 61 % 0 mm
23:20 -13.9 °C -17.2 °C 34635.4 hPa West 6 km/h 6 km/h 66 % 0 mm
23:25 -13.9 °C -17.8 °C 34533.8 hPa WSW 7.7 km/h 15.6 km/h 61 % 0 mm
23:38 -13.9 °C -17.2 °C 34669.3 hPa WNW 6 km/h 6 km/h 66 % 0 mm
23:44 -13.9 °C -17.2 °C 34669.3 hPa SW 9 km/h 9 km/h 66 % 0 mm
23:45 -13.9 °C -17.8 °C 34533.8 hPa SW 12.9 km/h 12.9 km/h 61 % 0 mm
Meteo Sesrovires
Elogis d' Weather Underground - 3.25 mb

Guio original per  Jim McMurry - jmcmurry@mwt.net Adaptat per a la plantilla per  Wim van der Kuil - Leuven-Template.eu

Trobareu la nostra informacio del temps tambe a:

Weather Underground

AWEKAS